METAR Formatted Surface Weather Observation
Issued by NWS

Home | Current Version | Previous Version | Text Only | Print | Product List | Glossary On
Versions: 1 2 3 4 5 6 7 8 9 10 11 12
000
SAUS41 KCAR 210200 COR
MTRGNR
METAR KGNR 210156Z AUTO 30015G28KT M12/M16 A2983 RMK AO1 PK WND
31028/0151 SLP129 T11171161



USA.gov is the U.S. government's official web portal to all federal, state and local government web resources and services.